Terminal Aerodrome Forecast
Issued by NWS Blacksburg, VA

Home | Current Version | Previous Version | Text Only | Print | Product List | Glossary On
Versions: 1 2 3 4 5 6 7 8 9 10 11 12 13 14 15 16 17 18 19 20 21 22 23 24 25 26 27
000
FTUS41 KRNK 042336
TAFROA
TAF
KROA 042336Z 0500/0524 33003KT 6SM -RA BR FEW030 SCT090 OVC110
     FM050200 08005KT P6SM BKN050
     FM050700 08004KT P6SM SCT010 OVC025
     FM051500 07005KT P6SM SCT025 BKN040=

USA.gov is the U.S. government's official web portal to all federal, state and local government web resources and services.